Time;durP1;ratioP1;P1;durP2;ratioP2;P2;SDS_P1;SDS_P2;PMS_P1;PMS_P2;Temp;Humidity;BMP_temperature;BMP_pressure;BME280_temperature;BME280_humidity;BME280_pressure;Samples;Min_cycle;Max_cycle;Signal;HPM_P1;HPM_P2
2021/10/13 00:00:10;;;;;;;13.40;11.37;;;;;;;11.41;65.84;101071.63;6120114;23;20190;-63
2021/10/13 00:02:36;;;;;;;13.83;11.13;;;;;;;11.39;65.19;101063.75;6119436;23;20166;-63
2021/10/13 00:05:02;;;;;;;13.60;11.03;;;;;;;11.44;65.30;101070.78;6119834;23;20161;-65
2021/10/13 00:07:28;;;;;;;13.13;11.07;;;;;;;11.42;65.13;101071.22;6119152;23;20165;-63
2021/10/13 00:09:54;;;;;;;13.70;10.87;;;;;;;11.37;65.38;101066.16;6120763;23;20605;-65
2021/10/13 00:12:19;;;;;;;17.87;11.07;;;;;;;11.36;64.90;101072.13;6120052;23;20157;-65
2021/10/13 00:14:45;;;;;;;13.70;11.40;;;;;;;11.25;65.69;101066.81;6119545;23;20154;-65
2021/10/13 00:17:10;;;;;;;14.00;11.70;;;;;;;11.22;65.33;101067.63;6118611;23;20213;-65
2021/10/13 00:19:36;;;;;;;14.63;11.50;;;;;;;11.18;65.36;101055.06;6120323;23;20542;-65
2021/10/13 00:22:02;;;;;;;15.27;11.17;;;;;;;11.01;65.48;101040.31;6120494;23;20150;-65
2021/10/13 00:24:28;;;;;;;14.70;12.60;;;;;;;10.90;65.31;101027.84;6117765;23;20162;-65
2021/10/13 00:26:53;;;;;;;15.33;11.43;;;;;;;10.87;65.35;101014.84;6118498;23;20166;-65
2021/10/13 00:29:20;;;;;;;13.73;11.63;;;;;;;11.07;65.53;101049.69;6120012;23;20165;-65
2021/10/13 00:31:45;;;;;;;14.57;11.67;;;;;;;11.01;65.23;101056.19;6122200;23;20269;-65
2021/10/13 00:34:11;;;;;;;17.23;12.37;;;;;;;10.95;65.24;101052.31;6121618;23;20158;-65
2021/10/13 00:36:36;;;;;;;13.47;11.77;;;;;;;10.94;65.31;101051.53;6121673;23;20151;-65
2021/10/13 00:39:02;;;;;;;14.17;12.17;;;;;;;10.85;65.67;101037.44;6120095;23;20186;-66
2021/10/13 00:41:28;;;;;;;17.20;12.47;;;;;;;10.82;65.77;101048.59;6122622;23;20158;-65
2021/10/13 00:43:53;;;;;;;16.37;13.30;;;;;;;10.79;65.74;101036.38;6121913;23;20158;-65
2021/10/13 00:46:19;;;;;;;15.33;12.50;;;;;;;10.77;65.73;101043.56;6120915;23;20170;-66
2021/10/13 00:48:44;;;;;;;14.37;11.00;;;;;;;10.83;66.21;101047.41;6120851;23;20155;-66
2021/10/13 00:51:10;;;;;;;14.70;12.40;;;;;;;10.75;66.66;101046.75;6121766;23;20260;-65
2021/10/13 00:53:35;;;;;;;15.13;12.47;;;;;;;10.51;66.73;101016.69;6121923;23;20161;-65
2021/10/13 00:56:01;;;;;;;18.30;12.80;;;;;;;10.60;67.05;101031.56;6121186;23;20502;-64
2021/10/13 00:58:27;;;;;;;15.47;12.80;;;;;;;9.92;66.57;100930.63;6122343;23;20156;-65
2021/10/13 01:00:58;;;;;;;17.17;12.87;;;;;;;10.34;66.99;101029.63;6121800;23;20512;-65
2021/10/13 01:03:41;;;;;;;16.40;13.07;;;;;;;10.47;66.55;101043.69;6121791;23;20152;-65
2021/10/13 01:06:19;;;;;;;16.37;13.33;;;;;;;10.44;66.86;101045.31;6120559;23;20146;-64
2021/10/13 01:09:08;;;;;;;16.83;12.90;;;;;;;10.39;67.04;101039.44;6121875;23;20164;-65
2021/10/13 01:11:50;;;;;;;16.20;12.73;;;;;;;10.32;67.26;101039.56;6121289;23;20164;-65
2021/10/13 01:14:19;;;;;;;15.33;13.53;;;;;;;10.24;66.84;101043.69;6121285;23;20153;-65
2021/10/13 01:17:10;;;;;;;14.73;12.73;;;;;;;10.18;67.31;101037.03;6121363;23;20329;-65
2021/10/13 01:19:45;;;;;;;15.17;12.77;;;;;;;10.14;67.57;101036.31;6120316;23;20181;-65
2021/10/13 01:22:29;;;;;;;16.13;12.93;;;;;;;10.13;67.57;101037.50;6120067;23;20152;-65
2021/10/13 01:25:39;;;;;;;14.90;12.43;;;;;;;10.09;67.29;101045.09;6120842;23;20149;-65
2021/10/13 01:28:10;;;;;;;14.17;12.40;;;;;;;10.04;67.63;101060.19;6087789;23;20165;-65
2021/10/13 01:30:51;;;;;;;15.37;12.87;;;;;;;9.64;67.71;100978.09;6118736;23;20235;-65
2021/10/13 01:33:34;;;;;;;16.77;12.20;;;;;;;9.76;67.67;101002.44;6121723;23;20142;-65
2021/10/13 01:36:05;;;;;;;16.67;13.77;;;;;;;9.99;68.43;101046.78;6120803;23;20229;-65
2021/10/13 01:38:38;;;;;;;15.43;13.07;;;;;;;9.94;67.92;101040.94;6121301;23;20189;-65
2021/10/13 01:41:04;;;;;;;15.57;13.40;;;;;;;9.62;67.96;101007.38;6113714;23;20152;-65
2021/10/13 01:43:36;;;;;;;15.67;13.33;;;;;;;9.54;67.77;100990.09;6121937;23;20316;-65
2021/10/13 01:46:03;;;;;;;17.37;13.97;;;;;;;9.93;68.63;101040.16;6120287;23;20544;-64
2021/10/13 01:48:32;;;;;;;14.57;12.83;;;;;;;9.92;68.14;101049.66;6122115;23;20167;-65
2021/10/13 01:50:57;;;;;;;19.63;14.40;;;;;;;9.92;68.71;101049.66;6119879;23;20154;-65
2021/10/13 01:53:25;;;;;;;17.07;13.23;;;;;;;9.92;68.67;101046.88;6121517;23;20164;-65
2021/10/13 01:55:53;;;;;;;16.27;14.03;;;;;;;9.89;68.42;101049.72;6122213;23;20165;-65
2021/10/13 01:58:21;;;;;;;18.70;13.53;;;;;;;9.61;68.31;101003.03;6120485;23;20164;-64
2021/10/13 02:00:51;;;;;;;14.63;12.57;;;;;;;9.94;68.35;101052.78;6120724;23;20154;-64
2021/10/13 02:03:23;;;;;;;17.70;14.17;;;;;;;9.84;68.42;101044.66;6120718;23;20161;-65
2021/10/13 02:05:52;;;;;;;16.43;13.80;;;;;;;9.94;67.86;101052.78;6122069;23;20262;-65
2021/10/13 02:08:20;;;;;;;17.57;13.90;;;;;;;9.83;67.89;101043.84;6120121;23;20241;-64
2021/10/13 02:10:46;;;;;;;19.20;13.50;;;;;;;9.92;67.75;101054.41;6121518;23;20165;-64
2021/10/13 02:13:14;;;;;;;17.00;14.10;;;;;;;9.93;67.88;101055.94;6119818;23;20562;-64
2021/10/13 02:15:45;;;;;;;20.60;14.33;;;;;;;9.78;68.04;101026.94;6121881;23;20510;-64
2021/10/13 02:18:16;;;;;;;15.73;13.80;;;;;;;9.63;67.68;100992.34;6119870;23;20151;-64
2021/10/13 02:20:42;;;;;;;17.43;14.17;;;;;;;10.02;67.78;101051.47;6121197;23;20161;-65
2021/10/13 02:23:11;;;;;;;16.60;14.60;;;;;;;9.88;67.32;101031.50;6117173;23;20172;-65
2021/10/13 02:25:44;;;;;;;17.33;14.87;;;;;;;10.02;67.52;101051.47;6119633;23;20164;-64
2021/10/13 02:28:14;;;;;;;19.23;14.90;;;;;;;9.94;67.81;101055.53;6120035;23;20149;-65
2021/10/13 02:30:40;;;;;;;16.80;14.23;;;;;;;9.81;67.74;101032.41;6120409;23;20200;-64
2021/10/13 02:33:06;;;;;;;16.27;14.57;;;;;;;9.90;67.67;101059.56;6119976;23;20196;-65
2021/10/13 02:35:32;;;;;;;19.73;15.03;;;;;;;9.90;67.84;101052.03;6121087;23;20153;-64
2021/10/13 02:37:57;;;;;;;19.40;15.47;;;;;;;9.93;67.49;101067.81;6120204;23;20181;-64
2021/10/13 02:40:23;;;;;;;19.73;16.03;;;;;;;9.56;67.76;101029.22;6120536;23;20632;-64
2021/10/13 02:42:52;;;;;;;16.83;14.93;;;;;;;9.82;68.16;101063.63;6120834;23;20160;-64
2021/10/13 02:45:18;;;;;;;20.30;16.47;;;;;;;9.87;68.17;101065.94;6118995;23;20163;-65
2021/10/13 02:47:49;;;;;;;18.53;15.47;;;;;;;9.34;67.94;100991.97;6118749;23;20515;-64
2021/10/13 02:50:35;;;;;;;18.10;14.90;;;;;;;9.84;67.78;101070.31;6120157;23;20598;-65
2021/10/13 02:53:38;;;;;;;20.63;16.00;;;;;;;9.80;67.87;101072.38;6118046;23;20239;-65
2021/10/13 02:56:20;;;;;;;21.73;15.70;;;;;;;9.80;67.78;101082.66;6120493;23;20627;-64
2021/10/13 02:59:03;;;;;;;16.80;14.67;;;;;;;9.37;67.98;101026.31;6120879;23;20173;-64
2021/10/13 03:01:36;;;;;;;19.00;15.63;;;;;;;9.74;68.37;101078.78;6119207;23;20156;-64
2021/10/13 03:04:04;;;;;;;17.83;14.53;;;;;;;9.73;68.04;101085.53;6119540;23;20145;-64
2021/10/13 03:07:06;;;;;;;17.63;15.57;;;;;;;9.65;68.51;101090.38;6118067;23;20168;-64
2021/10/13 03:09:38;;;;;;;17.10;14.67;;;;;;;9.66;68.07;101085.59;6121321;23;20143;-64
2021/10/13 03:12:07;;;;;;;19.67;15.07;;;;;;;9.61;68.53;101086.06;6119954;23;20160;-64
2021/10/13 03:14:33;;;;;;;16.90;15.10;;;;;;;9.63;68.63;101078.91;6120244;23;20156;-64
2021/10/13 03:17:01;;;;;;;16.93;15.03;;;;;;;9.63;68.49;101089.97;6119782;23;20157;-64
2021/10/13 03:19:27;;;;;;;18.73;15.67;;;;;;;9.60;68.38;101084.50;6119501;23;20190;-64
2021/10/13 03:21:53;;;;;;;18.60;15.47;;;;;;;9.15;68.58;101034.06;6118915;23;20161;-65
2021/10/13 03:24:19;;;;;;;17.87;15.00;;;;;;;9.54;68.40;101081.38;6117194;23;20182;-64
2021/10/13 03:26:49;;;;;;;20.63;14.77;;;;;;;9.61;68.20;101084.09;6119186;23;20474;-64
2021/10/13 03:29:15;;;;;;;18.20;15.30;;;;;;;9.57;68.26;101079.78;6118529;23;20162;-64
2021/10/13 03:31:41;;;;;;;18.00;15.23;;;;;;;9.37;68.33;101085.16;6118792;23;20241;-64
2021/10/13 03:34:07;;;;;;;17.63;15.00;;;;;;;9.53;68.76;101090.88;6119826;23;20152;-63
2021/10/13 03:36:41;;;;;;;17.77;15.33;;;;;;;9.52;68.55;101094.88;6119416;23;20163;-64
2021/10/13 03:39:07;;;;;;;22.73;15.63;;;;;;;9.52;68.58;101097.63;6119845;23;20188;-64
2021/10/13 03:41:33;;;;;;;17.23;14.90;;;;;;;9.44;68.54;101078.75;6120954;23;20157;-64
2021/10/13 03:43:59;;;;;;;17.20;15.17;;;;;;;9.06;68.26;101017.19;6119768;23;20162;-64
2021/10/13 03:46:24;;;;;;;17.93;15.87;;;;;;;9.53;68.19;101096.41;6119302;23;20241;-64
2021/10/13 03:48:51;;;;;;;17.80;14.90;;;;;;;9.49;68.28;101092.91;6120525;23;20185;-64
2021/10/13 03:51:19;;;;;;;19.10;15.30;;;;;;;9.33;68.55;101058.75;6120346;23;20153;-65
2021/10/13 03:53:45;;;;;;;20.70;15.27;;;;;;;9.56;68.05;101080.97;6120627;23;20155;-65
2021/10/13 03:56:12;;;;;;;18.97;14.87;;;;;;;9.12;68.30;101023.81;6118672;23;20160;-65
2021/10/13 03:58:38;;;;;;;16.50;14.47;;;;;;;9.31;68.65;101059.16;6120622;23;20178;-65
2021/10/13 04:01:04;;;;;;;22.23;15.13;;;;;;;9.21;68.60;101057.28;6119604;23;20221;-65
2021/10/13 04:03:29;;;;;;;19.30;15.70;;;;;;;9.42;69.28;101084.72;6118641;23;20293;-65
2021/10/13 04:05:55;;;;;;;17.63;14.53;;;;;;;9.42;68.77;101090.25;6118351;23;20161;-65
2021/10/13 04:08:21;;;;;;;21.50;15.93;;;;;;;9.44;68.54;101081.53;6119165;23;20581;-65
2021/10/13 04:10:46;;;;;;;18.73;15.13;;;;;;;9.27;68.92;101065.94;6120172;23;20156;-65
2021/10/13 04:13:12;;;;;;;18.87;15.63;;;;;;;9.40;69.14;101092.66;6119854;23;20164;-65
2021/10/13 04:15:37;;;;;;;17.80;14.77;;;;;;;9.47;68.77;101091.75;6118745;23;20170;-65
2021/10/13 04:18:04;;;;;;;17.83;14.97;;;;;;;9.30;68.97;101068.66;6118783;23;20156;-65
2021/10/13 04:20:30;;;;;;;19.00;14.57;;;;;;;9.53;68.52;101092.88;6119993;23;20150;-66
2021/10/13 04:22:55;;;;;;;20.63;15.40;;;;;;;9.48;68.70;101093.34;6119176;23;20165;-65
2021/10/13 04:25:21;;;;;;;20.30;14.97;;;;;;;9.29;68.35;101058.78;6120214;23;20151;-65
2021/10/13 04:27:46;;;;;;;20.27;15.13;;;;;;;9.23;69.14;101057.66;6118444;23;20162;-65
2021/10/13 04:30:12;;;;;;;19.23;15.30;;;;;;;9.49;68.45;101092.91;6119641;23;20274;-65
2021/10/13 04:32:37;;;;;;;18.87;15.87;;;;;;;9.42;68.83;101089.44;6120179;23;20235;-65
2021/10/13 04:35:03;;;;;;;20.30;15.37;;;;;;;9.45;68.75;101102.47;6119109;23;20490;-65
2021/10/13 04:37:29;;;;;;;19.23;15.70;;;;;;;9.31;68.58;101075.75;6118821;23;20186;-65
2021/10/13 04:39:54;;;;;;;19.53;15.70;;;;;;;9.53;68.20;101106.72;6120717;23;20380;-66
2021/10/13 04:42:20;;;;;;;20.23;15.63;;;;;;;9.51;68.25;101106.34;6119414;23;20159;-65
2021/10/13 04:44:45;;;;;;;21.37;15.80;;;;;;;9.43;68.33;101107.63;6120757;23;20159;-65
2021/10/13 04:47:11;;;;;;;23.13;17.73;;;;;;;9.29;69.03;101107.78;6111958;23;20167;-64
2021/10/13 04:49:36;;;;;;;23.63;17.70;;;;;;;9.17;69.20;101116.63;6117399;23;20253;-65
2021/10/13 04:52:02;;;;;;;24.50;17.50;;;;;;;9.23;69.05;101120.50;6103322;23;20497;-65
2021/10/13 04:54:27;;;;;;;24.67;18.00;;;;;;;8.96;69.11;101072.59;6114717;23;20318;-64
2021/10/13 04:56:53;;;;;;;20.70;16.10;;;;;;;9.02;69.56;101088.31;6100696;23;20159;-64
2021/10/13 04:59:18;;;;;;;19.83;15.97;;;;;;;9.15;69.33;101110.69;6107708;23;20328;-64
2021/10/13 05:01:44;;;;;;;20.13;17.83;;;;;;;9.02;69.75;101104.13;6116193;23;20160;-64
2021/10/13 05:04:09;;;;;;;23.40;18.23;;;;;;;9.12;69.96;101108.75;6116796;23;20159;-64
2021/10/13 05:06:35;;;;;;;24.30;18.10;;;;;;;9.10;69.78;101111.94;6116558;23;20162;-64
2021/10/13 05:09:03;;;;;;;26.77;19.47;;;;;;;9.38;70.05;101130.97;6117140;23;20212;-64
2021/10/13 05:11:29;;;;;;;22.53;18.67;;;;;;;9.27;69.93;101121.25;6111936;23;20159;-64
2021/10/13 05:13:54;;;;;;;22.13;17.37;;;;;;;9.41;69.29;101116.34;6117224;23;20233;-65
2021/10/13 05:16:20;;;;;;;22.93;17.77;;;;;;;9.58;69.35;101148.53;6110856;23;20433;-65
2021/10/13 05:18:45;;;;;;;21.83;17.63;;;;;;;9.67;69.44;101148.84;6116957;23;20593;-65
2021/10/13 05:21:11;;;;;;;20.07;17.60;;;;;;;9.83;68.23;101157.34;6118795;23;20158;-65
2021/10/13 05:23:36;;;;;;;21.30;18.13;;;;;;;9.83;68.71;101151.00;6117192;23;20164;-65
2021/10/13 05:26:02;;;;;;;22.13;16.83;;;;;;;9.88;68.30;101158.84;6118216;23;20191;-65
2021/10/13 05:28:27;;;;;;;23.27;17.60;;;;;;;9.75;68.33;101122.66;6113393;23;20612;-64
2021/10/13 05:30:53;;;;;;;21.80;17.93;;;;;;;9.98;68.17;101163.47;6115608;23;20663;-65
2021/10/13 05:33:19;;;;;;;26.07;18.97;;;;;;;10.14;67.75;101158.94;6116611;23;20667;-65
2021/10/13 05:35:44;;;;;;;22.60;18.23;;;;;;;10.23;67.92;101153.66;6117857;23;20241;-65
2021/10/13 05:38:10;;;;;;;24.93;17.80;;;;;;;10.40;67.44;101163.72;6113293;23;20155;-64
2021/10/13 05:40:35;;;;;;;21.60;17.43;;;;;;;10.51;67.14;101163.56;6117637;23;20159;-65
2021/10/13 05:43:01;;;;;;;22.20;17.60;;;;;;;10.63;66.92;101166.53;6118561;23;20161;-64
2021/10/13 05:45:26;;;;;;;22.93;18.23;;;;;;;10.82;66.66;101176.91;6120033;23;20610;-65
2021/10/13 05:47:52;;;;;;;21.93;17.93;;;;;;;10.94;66.08;101170.00;6120103;23;20559;-63
2021/10/13 05:50:17;;;;;;;23.67;17.50;;;;;;;10.97;65.71;101172.69;6121330;23;20179;-63
2021/10/13 05:52:43;;;;;;;20.03;16.87;;;;;;;10.95;64.94;101160.47;6120441;23;20245;-64
2021/10/13 05:55:08;;;;;;;20.40;16.80;;;;;;;11.03;64.86;101165.50;6121629;23;20157;-64
2021/10/13 05:57:35;;;;;;;21.83;17.27;;;;;;;11.15;65.03;101172.41;6122249;23;20162;-64
2021/10/13 06:00:04;;;;;;;22.07;17.50;;;;;;;11.28;64.59;101190.03;6117717;23;20150;-64
2021/10/13 06:02:29;;;;;;;22.10;16.80;;;;;;;11.26;64.50;101170.22;6121301;23;20229;-64
2021/10/13 06:04:54;;;;;;;23.20;17.30;;;;;;;11.43;64.62;101186.53;6121935;23;20236;-64
2021/10/13 06:07:20;;;;;;;25.43;17.37;;;;;;;11.49;64.54;101195.19;6121967;23;20229;-64
2021/10/13 06:09:46;;;;;;;21.67;17.07;;;;;;;11.52;64.23;101195.09;6121422;23;20716;-64
2021/10/13 06:12:11;;;;;;;21.10;16.97;;;;;;;11.61;63.73;101197.34;6121338;23;20503;-64
2021/10/13 06:14:37;;;;;;;23.83;17.47;;;;;;;11.40;63.99;101187.41;6119871;23;20158;-64
2021/10/13 06:17:05;;;;;;;29.17;17.50;;;;;;;11.42;64.04;101157.22;6122004;23;20208;-64
2021/10/13 06:19:31;;;;;;;24.40;17.83;;;;;;;11.77;63.55;101214.88;6122080;23;20157;-64
2021/10/13 06:21:56;;;;;;;20.43;16.60;;;;;;;11.86;63.47;101204.00;6121681;23;20158;-64
2021/10/13 06:24:21;;;;;;;24.87;17.20;;;;;;;12.00;63.61;101217.59;6122263;23;20161;-64
2021/10/13 06:26:47;;;;;;;20.10;17.27;;;;;;;11.94;63.02;101188.00;6119897;23;20254;-64
2021/10/13 06:29:12;;;;;;;21.20;17.50;;;;;;;12.10;62.45;101199.16;6121144;23;20185;-64
2021/10/13 06:31:38;;;;;;;20.80;17.67;;;;;;;12.13;63.34;101212.16;6119607;23;20202;-64
2021/10/13 06:34:03;;;;;;;20.67;17.60;;;;;;;12.20;63.03;101207.25;6121527;23;20189;-64
2021/10/13 06:36:29;;;;;;;20.23;18.13;;;;;;;12.35;62.95;101221.66;6122442;23;20682;-63
2021/10/13 06:38:54;;;;;;;21.97;17.43;;;;;;;12.47;62.62;101227.34;6121630;23;20146;-63
2021/10/13 06:41:20;;;;;;;20.53;16.43;;;;;;;12.45;61.20;101228.97;6121688;23;20156;-63
2021/10/13 06:43:46;;;;;;;22.40;16.47;;;;;;;12.50;61.74;101218.09;6118317;23;20532;-63
2021/10/13 06:46:11;;;;;;;20.37;16.30;;;;;;;12.41;61.26;101206.78;6117271;23;20173;-63
2021/10/13 06:48:37;;;;;;;20.03;16.13;;;;;;;12.53;61.71;101217.25;6119626;23;20150;-63
2021/10/13 06:51:02;;;;;;;19.93;16.23;;;;;;;12.42;61.28;101193.69;6121443;23;20202;-63
2021/10/13 06:53:28;;;;;;;21.13;15.93;;;;;;;12.68;60.94;101229.63;6121324;23;20165;-64
2021/10/13 06:55:57;;;;;;;20.83;15.77;;;;;;;12.81;60.25;101235.31;6119240;23;20170;-63
2021/10/13 06:58:23;;;;;;;25.40;16.10;;;;;;;12.63;60.40;101207.91;6111701;23;20504;-63
2021/10/13 07:00:48;;;;;;;20.57;15.70;;;;;;;12.82;60.50;101243.19;6114524;23;20150;-63
2021/10/13 07:03:14;;;;;;;19.37;14.17;;;;;;;12.69;59.02;101224.84;6117235;23;20218;-63
2021/10/13 07:05:40;;;;;;;16.20;13.97;;;;;;;12.73;59.30;101217.19;6120412;23;20230;-63
2021/10/13 07:08:06;;;;;;;20.00;15.33;;;;;;;12.77;59.14;101215.13;6119189;23;20154;-63
2021/10/13 07:10:31;;;;;;;22.87;15.10;;;;;;;12.88;58.64;101224.00;6115873;23;20183;-63
2021/10/13 07:12:57;;;;;;;19.73;14.57;;;;;;;13.11;58.82;101243.34;6117899;23;20158;-63
2021/10/13 07:15:22;;;;;;;20.37;15.00;;;;;;;13.07;59.59;101223.94;6120378;23;20155;-63
2021/10/13 07:17:49;;;;;;;21.03;15.30;;;;;;;13.11;58.98;101218.31;6115215;23;20294;-63
2021/10/13 07:20:15;;;;;;;19.90;14.83;;;;;;;13.34;57.81;101251.50;6115963;23;20207;-63
2021/10/13 07:22:40;;;;;;;18.93;14.97;;;;;;;13.43;57.86;101254.47;6119224;23;20161;-63
2021/10/13 07:25:07;;;;;;;17.80;14.60;;;;;;;13.58;58.23;101242.50;6120014;23;20248;-63
2021/10/13 07:27:33;;;;;;;18.13;15.07;;;;;;;13.61;59.16;101252.78;6119947;23;20156;-63
2021/10/13 07:30:01;;;;;;;18.87;14.93;;;;;;;13.67;57.77;101241.88;6116952;23;20417;-63
2021/10/13 07:32:32;;;;;;;19.23;14.83;;;;;;;13.59;57.98;101215.47;6116533;23;20148;-63
2021/10/13 07:34:59;;;;;;;20.67;14.40;;;;;;;13.59;56.75;101193.97;6122048;23;20189;-63
2021/10/13 07:37:24;;;;;;;20.10;15.20;;;;;;;14.07;56.72;101240.38;6118692;23;20628;-63
2021/10/13 07:39:51;;;;;;;20.73;13.83;;;;;;;14.11;56.16;101239.06;6116250;23;20161;-63
2021/10/13 07:42:17;;;;;;;15.43;13.17;;;;;;;14.24;54.85;101233.56;6121081;23;20158;-63
2021/10/13 07:44:44;;;;;;;17.27;13.70;;;;;;;14.15;54.95;101213.88;6122041;23;20633;-63
2021/10/13 07:47:10;;;;;;;17.30;13.50;;;;;;;14.33;55.26;101244.81;6118671;23;20299;-64
2021/10/13 07:49:36;;;;;;;19.27;14.07;;;;;;;14.36;55.92;101253.13;6118081;23;20243;-63
2021/10/13 07:52:02;;;;;;;16.17;13.63;;;;;;;14.33;54.33;101242.84;6119048;23;20160;-63
2021/10/13 07:54:28;;;;;;;17.33;13.43;;;;;;;14.04;53.78;101211.38;6118825;23;20671;-63
2021/10/13 07:56:53;;;;;;;17.40;13.83;;;;;;;14.20;54.68;101241.25;6119064;23;20378;-63
2021/10/13 07:59:19;;;;;;;20.03;13.40;;;;;;;14.25;54.30;101235.13;6119814;23;20157;-63
2021/10/13 08:01:48;;;;;;;18.53;13.27;;;;;;;14.24;55.60;101230.78;6119764;23;20219;-63
2021/10/13 08:04:13;;;;;;;15.80;13.37;;;;;;;14.39;55.38;101241.06;6119573;23;20587;-63
2021/10/13 08:06:39;;;;;;;16.70;13.10;;;;;;;14.33;54.60;101225.31;6120087;23;20178;-63
2021/10/13 08:09:04;;;;;;;20.30;13.77;;;;;;;14.30;55.47;101249.28;6115813;23;20215;-63
2021/10/13 08:11:30;;;;;;;16.20;13.77;;;;;;;14.26;54.60;101215.16;6119277;23;20624;-63
2021/10/13 08:13:56;;;;;;;18.43;13.87;;;;;;;14.37;55.44;101251.88;6118759;23;20563;-64
2021/10/13 08:16:21;;;;;;;19.33;13.57;;;;;;;14.41;54.07;101247.00;6120424;23;20607;-64
2021/10/13 08:18:47;;;;;;;16.77;12.90;;;;;;;14.42;54.66;101242.97;6120884;23;20147;-64
2021/10/13 08:21:12;;;;;;;17.33;13.00;;;;;;;14.38;53.00;101247.88;6120846;23;20202;-64
2021/10/13 08:23:38;;;;;;;16.77;12.90;;;;;;;14.47;54.53;101244.41;6118883;23;20617;-64
2021/10/13 08:26:03;;;;;;;15.70;12.97;;;;;;;14.45;54.36;101241.31;6121043;23;20178;-64
2021/10/13 08:28:30;;;;;;;17.47;13.10;;;;;;;14.30;54.23;101235.34;6121977;23;20185;-64
2021/10/13 08:30:57;;;;;;;19.60;13.97;;;;;;;14.48;53.98;101251.56;6120615;23;20680;-64
2021/10/13 08:33:23;;;;;;;17.57;12.87;;;;;;;14.37;54.22;101228.78;6120413;23;20172;-64
2021/10/13 08:35:49;;;;;;;19.30;13.47;;;;;;;14.41;54.23;101233.03;6121074;23;20874;-64
2021/10/13 08:38:15;;;;;;;14.53;12.03;;;;;;;14.26;52.90;101233.91;6120040;23;20158;-63
2021/10/13 08:40:42;;;;;;;15.93;12.67;;;;;;;14.35;54.08;101240.38;6120679;23;20230;-64
2021/10/13 08:43:08;;;;;;;14.13;12.13;;;;;;;14.19;53.47;101222.94;6120068;23;20296;-64
2021/10/13 08:45:37;;;;;;;14.80;12.30;;;;;;;14.31;53.16;101244.50;6142523;23;20626;-64
2021/10/13 08:48:04;;;;;;;17.07;12.20;;;;;;;14.32;53.63;101249.63;6109996;23;20231;-64
2021/10/13 08:50:33;;;;;;;15.13;11.50;;;;;;;14.35;52.83;101250.75;6119207;23;20274;-64
2021/10/13 08:53:08;;;;;;;14.43;11.23;;;;;;;14.61;51.17;101252.38;6117039;23;20211;-64
2021/10/13 08:55:34;;;;;;;18.63;11.90;;;;;;;14.61;51.47;101235.63;6117445;23;20547;-62
2021/10/13 08:58:13;;;;;;;14.03;11.57;;;;;;;14.85;52.38;101248.03;6115546;23;20164;-62
2021/10/13 09:00:42;;;;;;;18.97;11.17;;;;;;;14.94;53.31;101243.34;6119017;23;20644;-63
2021/10/13 09:03:25;;;;;;;16.87;12.00;;;;;;;15.03;51.52;101223.91;6115379;23;20168;-61
2021/10/13 09:05:50;;;;;;;14.10;11.10;;;;;;;15.40;50.88;101250.22;6115337;23;20149;-61
2021/10/13 09:08:17;;;;;;;15.17;11.17;;;;;;;15.52;49.26;101243.84;6119128;23;20158;-61
2021/10/13 09:10:42;;;;;;;13.43;10.50;;;;;;;15.75;50.50;101240.63;6120138;23;20253;-61
2021/10/13 09:13:17;;;;;;;14.53;11.07;;;;;;;15.85;47.86;101242.25;6116886;23;20590;-61
2021/10/13 09:15:48;;;;;;;14.87;11.00;;;;;;;15.93;48.92;101246.38;6121704;23;20158;-61
2021/10/13 09:18:14;;;;;;;13.00;10.63;;;;;;;15.54;48.72;101216.22;6120782;23;20162;-61
2021/10/13 09:20:41;;;;;;;11.87;10.67;;;;;;;15.74;46.14;101256.63;6121511;23;20213;-61
2021/10/13 09:23:19;;;;;;;11.97;9.90;;;;;;;15.48;47.29;101229.22;6122388;23;20242;-61
2021/10/13 09:26:03;;;;;;;12.33;8.93;;;;;;;15.74;45.75;101251.03;6121516;23;20172;-61
2021/10/13 09:28:29;;;;;;;12.83;8.90;;;;;;;15.73;44.73;101257.06;6123270;23;20163;-62
2021/10/13 09:30:55;;;;;;;13.00;8.97;;;;;;;15.67;44.75;101258.88;6123103;23;20268;-62
2021/10/13 09:33:20;;;;;;;14.10;9.43;;;;;;;15.59;45.72;101244.38;6123099;23;20526;-61
2021/10/13 09:35:50;;;;;;;12.13;9.50;;;;;;;15.83;45.60;101269.91;6123017;23;20599;-62
2021/10/13 09:38:22;;;;;;;16.60;10.10;;;;;;;15.68;45.81;101271.63;6122297;23;20160;-62
2021/10/13 09:40:50;;;;;;;14.47;10.40;;;;;;;15.56;47.24;101256.44;6121434;23;20613;-62
2021/10/13 09:43:35;;;;;;;15.53;10.23;;;;;;;15.75;47.58;101246.22;6121967;23;20151;-62
2021/10/13 09:46:12;;;;;;;16.47;10.83;;;;;;;16.12;46.36;101270.44;6121594;23;20164;-62
2021/10/13 09:48:40;;;;;;;15.33;9.97;;;;;;;16.24;44.60;101275.97;6119378;23;20157;-62
2021/10/13 09:51:35;;;;;;;14.80;10.07;;;;;;;16.14;45.90;101281.97;6117618;23;20221;-62
2021/10/13 09:54:07;;;;;;;15.13;10.27;;;;;;;16.16;46.66;101277.47;6120185;23;20193;-62
2021/10/13 09:56:38;;;;;;;14.43;9.40;;;;;;;16.36;45.16;101274.34;6120838;23;20143;-62
2021/10/13 09:59:11;;;;;;;12.77;8.63;;;;;;;16.58;43.56;101275.91;6120923;23;20147;-62
2021/10/13 10:01:38;;;;;;;11.67;7.90;;;;;;;16.58;42.10;101265.97;6122244;23;20158;-62
2021/10/13 10:04:06;;;;;;;13.30;9.10;;;;;;;16.68;42.54;101271.13;6121866;23;20154;-62
2021/10/13 10:06:32;;;;;;;14.30;8.60;;;;;;;16.39;43.36;101273.47;6122156;23;20605;-62
2021/10/13 10:09:02;;;;;;;11.50;7.83;;;;;;;16.19;41.76;101256.97;6121860;23;20185;-62
2021/10/13 10:11:39;;;;;;;14.60;9.60;;;;;;;16.15;42.37;101270.31;6120292;23;20248;-62
2021/10/13 10:14:34;;;;;;;11.73;8.77;;;;;;;15.86;42.71;101275.34;6121586;23;20143;-62
2021/10/13 10:17:00;;;;;;;13.40;9.60;;;;;;;15.79;44.50;101261.63;6121175;23;20554;-62
2021/10/13 10:19:28;;;;;;;12.57;8.93;;;;;;;15.81;44.60;101258.38;6121506;23;20154;-63
2021/10/13 10:21:54;;;;;;;13.27;8.17;;;;;;;15.99;42.23;101250.91;6122771;23;20221;-62
2021/10/13 10:24:30;;;;;;;14.07;8.20;;;;;;;16.08;42.65;101253.78;6122186;23;20603;-62
2021/10/13 10:27:23;;;;;;;11.80;8.17;;;;;;;16.15;42.30;101266.75;6116659;23;20147;-63
2021/10/13 10:30:09;;;;;;;10.03;7.83;;;;;;;16.17;42.61;101264.25;6118628;23;20217;-62
2021/10/13 10:33:16;;;;;;;13.80;8.30;;;;;;;16.10;43.21;101261.72;6110880;23;20241;-63
2021/10/13 10:35:45;;;;;;;12.70;8.10;;;;;;;16.24;42.84;101266.81;6106374;23;20584;-63
2021/10/13 10:38:12;;;;;;;11.67;7.97;;;;;;;16.10;42.34;101253.34;6120777;23;20143;-63
2021/10/13 10:40:39;;;;;;;10.63;7.73;;;;;;;16.02;43.18;101266.00;6119533;23;20570;-63
2021/10/13 10:43:27;;;;;;;14.00;8.30;;;;;;;15.71;42.62;101248.34;6121104;23;20158;-63
2021/10/13 10:45:58;;;;;;;12.37;8.20;;;;;;;15.79;43.81;101236.47;6121630;23;20491;-63
2021/10/13 10:48:25;;;;;;;10.80;7.63;;;;;;;16.19;42.54;101264.59;6119341;23;20160;-63
2021/10/13 10:50:51;;;;;;;9.97;7.57;;;;;;;16.48;42.62;101265.91;6121095;23;20192;-63
2021/10/13 10:53:27;;;;;;;11.93;8.07;;;;;;;16.52;42.64;101265.75;6120864;23;20616;-63
2021/10/13 10:55:54;;;;;;;11.17;8.10;;;;;;;16.67;41.35;101273.19;6120163;23;20250;-63
2021/10/13 10:58:28;;;;;;;11.13;8.67;;;;;;;16.07;40.86;101248.66;6119802;23;20367;-63
2021/10/13 11:01:15;;;;;;;12.37;9.20;;;;;;;16.32;42.86;101268.88;6120339;23;20161;-62
2021/10/13 11:03:42;;;;;;;9.97;8.40;;;;;;;16.46;43.14;101264.81;6120187;23;20134;-62
2021/10/13 11:06:22;;;;;;;12.17;8.80;;;;;;;16.53;43.69;101265.31;6118011;23;20158;-62
2021/10/13 11:09:01;;;;;;;10.37;7.50;;;;;;;16.62;42.47;101269.41;6119451;23;20628;-62
2021/10/13 11:11:30;;;;;;;11.23;7.77;;;;;;;16.48;41.75;101269.94;6120252;23;20162;-63
2021/10/13 11:14:07;;;;;;;11.73;8.17;;;;;;;16.57;41.27;101270.00;6118063;23;20150;-63
2021/10/13 11:16:35;;;;;;;10.47;7.63;;;;;;;16.60;41.45;101250.28;6119751;23;20448;-63
2021/10/13 11:19:10;;;;;;;10.43;7.17;;;;;;;16.80;41.81;101261.88;6115397;23;20173;-63
2021/10/13 11:21:36;;;;;;;10.27;7.17;;;;;;;16.86;40.85;101244.00;6118910;23;20160;-65